Terminal Aerodrome Forecast
Issued by NWS

Home | Current Version | Previous Version | Graphics & Text | Print | Product List | Glossary On
Versions: 1 2 3 4 5 6 7 8 9 10 11 12 13 14 15 16
589
FTUS43 KLSX 011730
TAFSUS
TAF
KSUS 011730Z 0118/0218 27010G17KT P6SM SCT025
     FM012300 26004KT P6SM FEW090=

USA.gov is the U.S. government's official web portal to all federal, state and local government web resources and services.